sensor_id;sensor_type;location;lat;lon;timestamp;pressure;altitude;pressure_sealevel;temperature;humidity
3082;BME280;1551;51.046;7.010;2023-01-31T00:02:20;101782.38;;;6.75;79.46
3082;BME280;1551;51.046;7.010;2023-01-31T00:05:08;101787.53;;;6.78;79.27
3082;BME280;1551;51.046;7.010;2023-01-31T00:07:57;101798.47;;;6.74;79.12
3082;BME280;1551;51.046;7.010;2023-01-31T00:10:46;101792.66;;;6.79;79.52
3082;BME280;1551;51.046;7.010;2023-01-31T00:13:35;101796.88;;;6.79;79.11
3082;BME280;1551;51.046;7.010;2023-01-31T00:16:25;101791.00;;;6.81;78.93
3082;BME280;1551;51.046;7.010;2023-01-31T00:19:14;101801.19;;;6.81;79.15
3082;BME280;1551;51.046;7.010;2023-01-31T00:22:03;101794.56;;;6.89;78.60
3082;BME280;1551;51.046;7.010;2023-01-31T00:24:52;101796.41;;;6.95;79.25
3082;BME280;1551;51.046;7.010;2023-01-31T00:27:41;101797.13;;;6.89;78.98
3082;BME280;1551;51.046;7.010;2023-01-31T00:30:33;101802.16;;;6.86;79.19
3082;BME280;1551;51.046;7.010;2023-01-31T00:33:22;101803.84;;;6.86;79.08
3082;BME280;1551;51.046;7.010;2023-01-31T00:36:20;101798.75;;;6.86;78.59
3082;BME280;1551;51.046;7.010;2023-01-31T00:39:09;101791.88;;;6.82;79.02
3082;BME280;1551;51.046;7.010;2023-01-31T00:41:58;101802.78;;;6.78;78.64
3082;BME280;1551;51.046;7.010;2023-01-31T00:44:47;101799.47;;;6.80;78.90
3082;BME280;1551;51.046;7.010;2023-01-31T00:47:36;101791.72;;;6.76;79.42
3082;BME280;1551;51.046;7.010;2023-01-31T00:50:25;101795.16;;;6.78;79.09
3082;BME280;1551;51.046;7.010;2023-01-31T00:53:17;101787.63;;;6.82;79.39
3082;BME280;1551;51.046;7.010;2023-01-31T00:56:14;101779.97;;;6.81;78.90
3082;BME280;1551;51.046;7.010;2023-01-31T00:59:04;101785.75;;;6.74;78.80
3082;BME280;1551;51.046;7.010;2023-01-31T01:01:56;101783.06;;;6.68;78.99
3082;BME280;1551;51.046;7.010;2023-01-31T01:04:45;101783.19;;;6.72;79.22
3082;BME280;1551;51.046;7.010;2023-01-31T01:07:34;101792.41;;;6.69;78.89
3082;BME280;1551;51.046;7.010;2023-01-31T01:10:23;101792.31;;;6.66;78.78
3082;BME280;1551;51.046;7.010;2023-01-31T01:13:12;101795.69;;;6.63;79.20
3082;BME280;1551;51.046;7.010;2023-01-31T01:16:06;101794.03;;;6.65;79.68
3082;BME280;1551;51.046;7.010;2023-01-31T01:18:55;101799.28;;;6.73;79.72
3082;BME280;1551;51.046;7.010;2023-01-31T01:21:45;101800.19;;;6.75;79.31
3082;BME280;1551;51.046;7.010;2023-01-31T01:24:34;101799.28;;;6.73;78.85
3082;BME280;1551;51.046;7.010;2023-01-31T01:27:25;101793.28;;;6.69;78.93
3082;BME280;1551;51.046;7.010;2023-01-31T01:30:15;101787.22;;;6.66;78.79
3082;BME280;1551;51.046;7.010;2023-01-31T01:33:04;101797.97;;;6.53;79.10
3082;BME280;1551;51.046;7.010;2023-01-31T01:35:59;101796.94;;;6.45;79.34
3082;BME280;1551;51.046;7.010;2023-01-31T01:38:50;101802.06;;;6.48;79.76
3082;BME280;1551;51.046;7.010;2023-01-31T01:41:40;101807.13;;;6.46;79.60
3082;BME280;1551;51.046;7.010;2023-01-31T01:44:44;101801.94;;;6.42;78.98
3082;BME280;1551;51.046;7.010;2023-01-31T01:50:27;101787.59;;;6.45;79.20
3082;BME280;1551;51.046;7.010;2023-01-31T01:53:20;101783.03;;;6.32;79.47
3082;BME280;1551;51.046;7.010;2023-01-31T01:56:16;101791.66;;;6.37;79.98
3082;BME280;1551;51.046;7.010;2023-01-31T01:59:09;101789.13;;;6.39;79.56
3082;BME280;1551;51.046;7.010;2023-01-31T02:02:00;101787.44;;;6.38;79.41
3082;BME280;1551;51.046;7.010;2023-01-31T02:04:51;101788.44;;;6.44;79.38
3082;BME280;1551;51.046;7.010;2023-01-31T02:07:40;101782.59;;;6.48;78.78
3082;BME280;1551;51.046;7.010;2023-01-31T02:10:33;101792.75;;;6.48;78.98
3082;BME280;1551;51.046;7.010;2023-01-31T02:13:27;101785.16;;;6.50;78.80
3082;BME280;1551;51.046;7.010;2023-01-31T02:16:17;101789.44;;;6.51;78.79
3082;BME280;1551;51.046;7.010;2023-01-31T02:19:59;101783.59;;;6.55;79.12
3082;BME280;1551;51.046;7.010;2023-01-31T02:22:26;101791.19;;;6.53;78.44
3082;BME280;1551;51.046;7.010;2023-01-31T02:25:34;101788.66;;;6.53;78.42
3082;BME280;1551;51.046;7.010;2023-01-31T02:28:36;101785.03;;;6.44;78.75
3082;BME280;1551;51.046;7.010;2023-01-31T02:34:50;101792.38;;;6.33;79.09
3082;BME280;1551;51.046;7.010;2023-01-31T02:40:53;101797.41;;;6.30;79.63
3082;BME280;1551;51.046;7.010;2023-01-31T02:43:51;101795.94;;;6.40;79.86
3082;BME280;1551;51.046;7.010;2023-01-31T02:47:05;101791.97;;;6.49;79.75
3082;BME280;1551;51.046;7.010;2023-01-31T02:50:03;101799.59;;;6.51;79.40
3082;BME280;1551;51.046;7.010;2023-01-31T02:53:07;101797.75;;;6.45;78.93
3082;BME280;1551;51.046;7.010;2023-01-31T02:56:23;101802.03;;;6.45;78.46
3082;BME280;1551;51.046;7.010;2023-01-31T02:59:19;101802.03;;;6.46;78.70
3082;BME280;1551;51.046;7.010;2023-01-31T03:02:12;101801.28;;;6.50;78.65
3082;BME280;1551;51.046;7.010;2023-01-31T03:05:01;101794.31;;;6.43;78.35
3082;BME280;1551;51.046;7.010;2023-01-31T03:07:57;101791.91;;;6.48;78.31
3082;BME280;1551;51.046;7.010;2023-01-31T03:10:59;101785.00;;;6.42;78.06
3082;BME280;1551;51.046;7.010;2023-01-31T03:14:13;101786.59;;;6.39;78.56
3082;BME280;1551;51.046;7.010;2023-01-31T03:17:12;101780.53;;;6.34;78.35
3082;BME280;1551;51.046;7.010;2023-01-31T03:20:30;101775.41;;;6.32;78.63
3082;BME280;1551;51.046;7.010;2023-01-31T03:23:23;101769.50;;;6.33;78.57
3082;BME280;1551;51.046;7.010;2023-01-31T03:26:18;101769.34;;;6.26;78.57
3082;BME280;1551;51.046;7.010;2023-01-31T03:29:13;101767.50;;;6.21;79.74
3082;BME280;1551;51.046;7.010;2023-01-31T03:32:18;101755.66;;;6.22;79.91
3082;BME280;1551;51.046;7.010;2023-01-31T03:35:08;101759.22;;;6.29;79.03
3082;BME280;1551;51.046;7.010;2023-01-31T03:38:15;101764.28;;;6.27;79.36
3082;BME280;1551;51.046;7.010;2023-01-31T03:41:11;101768.25;;;6.17;79.04
3082;BME280;1551;51.046;7.010;2023-01-31T03:44:08;101771.28;;;6.03;79.07
3082;BME280;1551;51.046;7.010;2023-01-31T03:47:07;101762.53;;;5.92;79.40
3082;BME280;1551;51.046;7.010;2023-01-31T03:50:04;101747.94;;;5.85;80.02
3082;BME280;1551;51.046;7.010;2023-01-31T03:52:59;101759.69;;;5.81;80.05
3082;BME280;1551;51.046;7.010;2023-01-31T03:55:57;101762.16;;;5.80;80.64
3082;BME280;1551;51.046;7.010;2023-01-31T03:58:50;101750.91;;;5.70;80.31
3082;BME280;1551;51.046;7.010;2023-01-31T04:01:45;101768.66;;;5.69;81.09
3082;BME280;1551;51.046;7.010;2023-01-31T04:04:45;101764.38;;;5.68;81.12
3082;BME280;1551;51.046;7.010;2023-01-31T04:07:36;101746.47;;;5.63;80.73
3082;BME280;1551;51.046;7.010;2023-01-31T04:10:26;101759.16;;;5.63;80.80
3082;BME280;1551;51.046;7.010;2023-01-31T04:13:15;101762.50;;;5.61;80.54
3082;BME280;1551;51.046;7.010;2023-01-31T04:16:04;101756.25;;;5.49;80.49
3082;BME280;1551;51.046;7.010;2023-01-31T04:18:53;101750.28;;;5.47;81.21
3082;BME280;1551;51.046;7.010;2023-01-31T04:21:44;101745.91;;;5.42;81.57
3082;BME280;1551;51.046;7.010;2023-01-31T04:24:33;101739.00;;;5.36;81.82
3082;BME280;1551;51.046;7.010;2023-01-31T04:27:22;101739.75;;;5.34;82.55
3082;BME280;1551;51.046;7.010;2023-01-31T04:30:11;101731.19;;;5.30;82.81
3082;BME280;1551;51.046;7.010;2023-01-31T04:33:01;101732.84;;;5.30;82.75
3082;BME280;1551;51.046;7.010;2023-01-31T04:35:50;101731.06;;;5.26;83.05
3082;BME280;1551;51.046;7.010;2023-01-31T04:38:39;101727.72;;;5.27;83.53
3082;BME280;1551;51.046;7.010;2023-01-31T04:41:29;101731.25;;;5.32;83.62
3082;BME280;1551;51.046;7.010;2023-01-31T04:44:18;101730.47;;;5.34;84.25
3082;BME280;1551;51.046;7.010;2023-01-31T04:47:06;101726.97;;;5.31;83.56
3082;BME280;1551;51.046;7.010;2023-01-31T04:49:55;101730.31;;;5.30;84.19
3082;BME280;1551;51.046;7.010;2023-01-31T04:52:48;101721.91;;;5.31;83.59
3082;BME280;1551;51.046;7.010;2023-01-31T04:55:37;101721.00;;;5.29;84.29
3082;BME280;1551;51.046;7.010;2023-01-31T04:58:26;101720.13;;;5.28;84.41
3082;BME280;1551;51.046;7.010;2023-01-31T05:01:15;101728.59;;;5.27;84.75
3082;BME280;1551;51.046;7.010;2023-01-31T05:04:04;101720.91;;;5.26;84.35
3082;BME280;1551;51.046;7.010;2023-01-31T05:06:53;101717.59;;;5.28;85.27
3082;BME280;1551;51.046;7.010;2023-01-31T05:09:42;101719.38;;;5.31;85.23
3082;BME280;1551;51.046;7.010;2023-01-31T05:12:32;101716.81;;;5.31;84.44
3082;BME280;1551;51.046;7.010;2023-01-31T05:15:20;101710.97;;;5.33;85.39
3082;BME280;1551;51.046;7.010;2023-01-31T05:18:10;101726.22;;;5.35;85.07
3082;BME280;1551;51.046;7.010;2023-01-31T05:20:58;101716.09;;;5.35;85.53
3082;BME280;1551;51.046;7.010;2023-01-31T05:23:48;101706.97;;;5.41;86.12
3082;BME280;1551;51.046;7.010;2023-01-31T05:26:36;101707.09;;;5.46;85.58
3082;BME280;1551;51.046;7.010;2023-01-31T05:29:30;101699.50;;;5.46;85.39
3082;BME280;1551;51.046;7.010;2023-01-31T05:32:19;101698.78;;;5.51;85.81
3082;BME280;1551;51.046;7.010;2023-01-31T05:35:08;101704.75;;;5.53;85.68
3082;BME280;1551;51.046;7.010;2023-01-31T05:37:57;101704.84;;;5.58;85.46
3082;BME280;1551;51.046;7.010;2023-01-31T05:40:46;101703.16;;;5.57;85.63
3082;BME280;1551;51.046;7.010;2023-01-31T05:43:35;101705.91;;;5.65;85.56
3082;BME280;1551;51.046;7.010;2023-01-31T05:46:24;101709.50;;;5.73;85.21
3082;BME280;1551;51.046;7.010;2023-01-31T05:49:13;101714.75;;;5.79;85.56
3082;BME280;1551;51.046;7.010;2023-01-31T05:52:02;101700.41;;;5.82;84.54
3082;BME280;1551;51.046;7.010;2023-01-31T05:54:51;101704.50;;;5.76;85.15
3082;BME280;1551;51.046;7.010;2023-01-31T05:57:40;101708.78;;;5.78;84.61
3082;BME280;1551;51.046;7.010;2023-01-31T06:00:29;101705.47;;;5.81;84.51
3082;BME280;1551;51.046;7.010;2023-01-31T06:03:18;101698.72;;;5.81;84.61
3082;BME280;1551;51.046;7.010;2023-01-31T06:06:06;101699.63;;;5.83;84.26
3082;BME280;1551;51.046;7.010;2023-01-31T06:08:55;101690.25;;;5.81;84.77
3082;BME280;1551;51.046;7.010;2023-01-31T06:11:44;101686.75;;;5.77;84.39
3082;BME280;1551;51.046;7.010;2023-01-31T06:14:33;101689.25;;;5.76;84.71
3082;BME280;1551;51.046;7.010;2023-01-31T06:17:22;101673.81;;;5.68;84.39
3082;BME280;1551;51.046;7.010;2023-01-31T06:20:12;101685.94;;;5.78;84.93
3082;BME280;1551;51.046;7.010;2023-01-31T06:23:00;101685.94;;;5.78;83.87
3082;BME280;1551;51.046;7.010;2023-01-31T06:25:50;101675.56;;;5.71;84.87
3082;BME280;1551;51.046;7.010;2023-01-31T06:28:39;101674.94;;;5.79;84.73
3082;BME280;1551;51.046;7.010;2023-01-31T06:31:28;101678.50;;;5.84;85.07
3082;BME280;1551;51.046;7.010;2023-01-31T06:34:17;101670.16;;;5.88;84.90
3082;BME280;1551;51.046;7.010;2023-01-31T06:37:09;101672.75;;;5.91;84.77
3082;BME280;1551;51.046;7.010;2023-01-31T06:39:58;101667.88;;;6.00;84.21
3082;BME280;1551;51.046;7.010;2023-01-31T06:42:47;101673.03;;;6.03;84.60
3082;BME280;1551;51.046;7.010;2023-01-31T06:45:36;101662.13;;;6.07;84.09
3082;BME280;1551;51.046;7.010;2023-01-31T06:48:25;101674.81;;;6.07;83.78
3082;BME280;1551;51.046;7.010;2023-01-31T06:51:15;101679.97;;;6.09;84.13
3082;BME280;1551;51.046;7.010;2023-01-31T06:54:04;101681.03;;;6.18;83.42
3082;BME280;1551;51.046;7.010;2023-01-31T06:56:53;101687.91;;;6.22;82.94
3082;BME280;1551;51.046;7.010;2023-01-31T06:59:42;101679.47;;;6.23;83.06
3082;BME280;1551;51.046;7.010;2023-01-31T07:02:31;101689.78;;;6.31;82.71
3082;BME280;1551;51.046;7.010;2023-01-31T07:05:20;101693.38;;;6.38;82.27
3082;BME280;1551;51.046;7.010;2023-01-31T07:08:09;101690.94;;;6.44;82.42
3082;BME280;1551;51.046;7.010;2023-01-31T07:10:58;101692.81;;;6.52;82.15
3082;BME280;1551;51.046;7.010;2023-01-31T07:13:51;101689.47;;;6.53;81.90
3082;BME280;1551;51.046;7.010;2023-01-31T07:16:40;101687.03;;;6.58;81.27
3082;BME280;1551;51.046;7.010;2023-01-31T07:19:29;101699.72;;;6.56;81.50
3082;BME280;1551;51.046;7.010;2023-01-31T07:22:18;101693.69;;;6.53;80.62
3082;BME280;1551;51.046;7.010;2023-01-31T07:25:07;101695.25;;;6.48;80.67
3082;BME280;1551;51.046;7.010;2023-01-31T07:27:57;101702.19;;;6.53;80.85
3082;BME280;1551;51.046;7.010;2023-01-31T07:30:46;101705.63;;;6.57;80.92
3082;BME280;1551;51.046;7.010;2023-01-31T07:33:37;101685.28;;;6.55;80.78
3082;BME280;1551;51.046;7.010;2023-01-31T07:36:25;101683.69;;;6.60;80.07
3082;BME280;1551;51.046;7.010;2023-01-31T07:39:15;101687.94;;;6.61;80.23
3082;BME280;1551;51.046;7.010;2023-01-31T07:42:04;101681.31;;;6.68;80.04
3082;BME280;1551;51.046;7.010;2023-01-31T07:44:53;101670.22;;;6.66;79.83
3082;BME280;1551;51.046;7.010;2023-01-31T07:47:42;101674.69;;;6.76;80.04
3082;BME280;1551;51.046;7.010;2023-01-31T07:50:32;101676.38;;;6.75;79.21
3082;BME280;1551;51.046;7.010;2023-01-31T07:53:20;101673.84;;;6.75;79.36
3082;BME280;1551;51.046;7.010;2023-01-31T07:56:14;101674.84;;;6.82;79.14
3082;BME280;1551;51.046;7.010;2023-01-31T07:59:04;101675.72;;;6.84;78.58
3082;BME280;1551;51.046;7.010;2023-01-31T08:01:53;101673.19;;;6.84;78.03
3082;BME280;1551;51.046;7.010;2023-01-31T08:05:01;101676.78;;;6.93;77.45
3082;BME280;1551;51.046;7.010;2023-01-31T08:07:51;101669.97;;;6.92;77.48
3082;BME280;1551;51.046;7.010;2023-01-31T08:10:58;101672.47;;;6.91;76.86
3082;BME280;1551;51.046;7.010;2023-01-31T08:13:47;101672.38;;;6.86;76.90
3082;BME280;1551;51.046;7.010;2023-01-31T08:16:36;101681.88;;;6.95;76.59
3082;BME280;1551;51.046;7.010;2023-01-31T08:19:26;101671.81;;;7.01;76.12
3082;BME280;1551;51.046;7.010;2023-01-31T08:22:15;101665.91;;;7.02;75.58
3082;BME280;1551;51.046;7.010;2023-01-31T08:25:04;101667.03;;;7.15;75.59
3082;BME280;1551;51.046;7.010;2023-01-31T08:27:54;101661.97;;;7.16;75.68
3082;BME280;1551;51.046;7.010;2023-01-31T08:30:44;101660.97;;;7.10;75.00
3082;BME280;1551;51.046;7.010;2023-01-31T08:33:35;101654.00;;;7.01;75.16
3082;BME280;1551;51.046;7.010;2023-01-31T08:36:27;101658.44;;;7.10;74.36
3082;BME280;1551;51.046;7.010;2023-01-31T08:39:17;101653.38;;;7.13;74.67
3082;BME280;1551;51.046;7.010;2023-01-31T08:42:06;101650.97;;;7.17;74.75
3082;BME280;1551;51.046;7.010;2023-01-31T08:44:55;101644.31;;;7.27;74.42
3082;BME280;1551;51.046;7.010;2023-01-31T08:47:44;101640.16;;;7.32;73.82
3082;BME280;1551;51.046;7.010;2023-01-31T08:50:33;101640.84;;;7.22;73.83
3082;BME280;1551;51.046;7.010;2023-01-31T08:53:21;101647.78;;;7.29;74.13
3082;BME280;1551;51.046;7.010;2023-01-31T08:56:12;101646.06;;;7.29;73.84
3082;BME280;1551;51.046;7.010;2023-01-31T08:59:01;101646.03;;;7.26;73.60
3082;BME280;1551;51.046;7.010;2023-01-31T09:01:50;101650.25;;;7.24;73.85
3082;BME280;1551;51.046;7.010;2023-01-31T09:04:39;101654.50;;;7.25;73.71
3082;BME280;1551;51.046;7.010;2023-01-31T09:07:28;101639.09;;;7.19;74.03
3082;BME280;1551;51.046;7.010;2023-01-31T09:10:18;101637.44;;;7.21;74.17
3082;BME280;1551;51.046;7.010;2023-01-31T09:13:07;101631.69;;;7.31;74.54
3082;BME280;1551;51.046;7.010;2023-01-31T09:16:05;101630.91;;;7.35;74.54
3082;BME280;1551;51.046;7.010;2023-01-31T09:18:55;101628.44;;;7.38;74.47
3082;BME280;1551;51.046;7.010;2023-01-31T09:21:44;101624.25;;;7.42;75.22
3082;BME280;1551;51.046;7.010;2023-01-31T09:24:33;101618.34;;;7.43;75.67
3082;BME280;1551;51.046;7.010;2023-01-31T09:27:22;101608.16;;;7.43;76.06
3082;BME280;1551;51.046;7.010;2023-01-31T09:30:12;101614.88;;;7.41;76.31
3082;BME280;1551;51.046;7.010;2023-01-31T09:33:01;101611.44;;;7.39;76.88
3082;BME280;1551;51.046;7.010;2023-01-31T09:35:58;101609.97;;;7.50;77.39
3082;BME280;1551;51.046;7.010;2023-01-31T09:38:47;101615.88;;;7.49;77.28
3082;BME280;1551;51.046;7.010;2023-01-31T09:41:49;101612.38;;;7.42;78.00
3082;BME280;1551;51.046;7.010;2023-01-31T09:44:41;101613.28;;;7.46;77.95
3082;BME280;1551;51.046;7.010;2023-01-31T09:47:41;101609.81;;;7.42;78.20
3082;BME280;1551;51.046;7.010;2023-01-31T09:50:44;101608.94;;;7.40;79.03
3082;BME280;1551;51.046;7.010;2023-01-31T09:53:36;101602.34;;;7.51;79.56
3082;BME280;1551;51.046;7.010;2023-01-31T09:56:33;101589.75;;;7.59;79.70
3082;BME280;1551;51.046;7.010;2023-01-31T09:59:31;101593.09;;;7.58;79.35
3082;BME280;1551;51.046;7.010;2023-01-31T10:06:19;101605.16;;;7.67;79.79
3082;BME280;1551;51.046;7.010;2023-01-31T10:08:58;101592.34;;;7.63;79.53
3082;BME280;1551;51.046;7.010;2023-01-31T10:11:54;101583.69;;;7.54;80.03
3082;BME280;1551;51.046;7.010;2023-01-31T10:14:56;101572.66;;;7.55;80.03
3082;BME280;1551;51.046;7.010;2023-01-31T10:17:51;101581.28;;;7.61;79.89
3082;BME280;1551;51.046;7.010;2023-01-31T10:20:49;101578.03;;;7.70;79.96
3082;BME280;1551;51.046;7.010;2023-01-31T10:23:53;101581.38;;;7.69;79.14
3082;BME280;1551;51.046;7.010;2023-01-31T10:26:45;101573.06;;;7.78;80.00
3082;BME280;1551;51.046;7.010;2023-01-31T10:29:40;101555.41;;;7.90;79.60
3082;BME280;1551;51.046;7.010;2023-01-31T10:32:36;101564.84;;;7.97;78.74
3082;BME280;1551;51.046;7.010;2023-01-31T10:35:35;101534.97;;;7.87;78.89
3082;BME280;1551;51.046;7.010;2023-01-31T10:38:32;101534.16;;;7.89;78.74
3082;BME280;1551;51.046;7.010;2023-01-31T10:41:35;101548.69;;;7.96;78.20
3082;BME280;1551;51.046;7.010;2023-01-31T10:44:40;101549.34;;;7.83;79.17
3082;BME280;1551;51.046;7.010;2023-01-31T10:47:36;101520.47;;;7.83;79.78
3082;BME280;1551;51.046;7.010;2023-01-31T10:50:31;101514.63;;;7.90;79.59
3082;BME280;1551;51.046;7.010;2023-01-31T10:53:38;101510.56;;;8.05;79.92
3082;BME280;1551;51.046;7.010;2023-01-31T10:56:36;101512.25;;;8.05;79.66
3082;BME280;1551;51.046;7.010;2023-01-31T10:59:32;101500.44;;;8.08;79.88
3082;BME280;1551;51.046;7.010;2023-01-31T11:02:24;101493.72;;;8.16;79.08
3082;BME280;1551;51.046;7.010;2023-01-31T11:05:20;101496.38;;;8.24;78.77
3082;BME280;1551;51.046;7.010;2023-01-31T11:12:01;101482.78;;;8.25;77.96
3082;BME280;1551;51.046;7.010;2023-01-31T11:15:04;101481.28;;;8.39;77.63
3082;BME280;1551;51.046;7.010;2023-01-31T11:17:59;101473.69;;;8.44;77.74
3082;BME280;1551;51.046;7.010;2023-01-31T11:20:48;101460.22;;;8.55;76.42
3082;BME280;1551;51.046;7.010;2023-01-31T11:23:37;101459.53;;;8.71;76.38
3082;BME280;1551;51.046;7.010;2023-01-31T11:26:37;101457.91;;;8.84;76.38
3082;BME280;1551;51.046;7.010;2023-01-31T11:29:30;101472.19;;;8.64;75.94
3082;BME280;1551;51.046;7.010;2023-01-31T11:32:23;101463.56;;;8.51;75.21
3082;BME280;1551;51.046;7.010;2023-01-31T11:38:19;101460.84;;;8.36;75.56
3082;BME280;1551;51.046;7.010;2023-01-31T11:44:21;101447.25;;;8.37;76.05
3082;BME280;1551;51.046;7.010;2023-01-31T11:47:11;101437.16;;;8.46;76.98
3082;BME280;1551;51.046;7.010;2023-01-31T11:50:01;101439.59;;;8.37;76.50
3082;BME280;1551;51.046;7.010;2023-01-31T11:52:59;101429.38;;;8.34;76.58
3082;BME280;1551;51.046;7.010;2023-01-31T11:55:50;101427.81;;;8.48;77.49
3082;BME280;1551;51.046;7.010;2023-01-31T11:58:41;101415.84;;;8.43;76.49
3082;BME280;1551;51.046;7.010;2023-01-31T12:01:31;101437.94;;;8.42;76.92
3082;BME280;1551;51.046;7.010;2023-01-31T12:04:38;101419.22;;;8.39;77.10
3082;BME280;1551;51.046;7.010;2023-01-31T12:07:40;101423.50;;;8.41;77.66
3082;BME280;1551;51.046;7.010;2023-01-31T12:10:41;101417.53;;;8.41;77.36
3082;BME280;1551;51.046;7.010;2023-01-31T12:13:30;101409.06;;;8.45;77.79
3082;BME280;1551;51.046;7.010;2023-01-31T12:16:22;101411.63;;;8.45;77.76
3082;BME280;1551;51.046;7.010;2023-01-31T12:22:15;101404.75;;;8.38;77.94
3082;BME280;1551;51.046;7.010;2023-01-31T12:25:21;101407.28;;;8.35;78.71
3082;BME280;1551;51.046;7.010;2023-01-31T12:28:40;101397.13;;;8.41;79.31
3082;BME280;1551;51.046;7.010;2023-01-31T12:41:31;101388.69;;;8.48;79.39
3082;BME280;1551;51.046;7.010;2023-01-31T12:44:31;101391.28;;;8.52;79.20
3082;BME280;1551;51.046;7.010;2023-01-31T12:56:39;101400.59;;;8.47;79.98
3082;BME280;1551;51.046;7.010;2023-01-31T13:03:06;101386.94;;;8.39;80.55
3082;BME280;1551;51.046;7.010;2023-01-31T13:06:02;101377.63;;;8.46;80.97
3082;BME280;1551;51.046;7.010;2023-01-31T13:08:58;101372.59;;;8.55;81.75
3082;BME280;1551;51.046;7.010;2023-01-31T13:11:54;101371.66;;;8.47;81.02
3082;BME280;1551;51.046;7.010;2023-01-31T13:14:50;101371.63;;;8.41;82.00
3082;BME280;1551;51.046;7.010;2023-01-31T13:17:42;101378.41;;;8.42;82.09
3082;BME280;1551;51.046;7.010;2023-01-31T13:20:40;101375.91;;;8.43;82.72
3082;BME280;1551;51.046;7.010;2023-01-31T13:23:35;101369.13;;;8.44;82.31
3082;BME280;1551;51.046;7.010;2023-01-31T13:26:31;101375.88;;;8.40;82.54
3082;BME280;1551;51.046;7.010;2023-01-31T13:29:28;101386.19;;;8.52;82.82
3082;BME280;1551;51.046;7.010;2023-01-31T13:32:36;101376.81;;;8.48;82.31
3082;BME280;1551;51.046;7.010;2023-01-31T13:35:40;101380.31;;;8.58;83.16
3082;BME280;1551;51.046;7.010;2023-01-31T13:38:38;101373.44;;;8.51;82.85
3082;BME280;1551;51.046;7.010;2023-01-31T13:41:30;101369.97;;;8.46;82.91
3082;BME280;1551;51.046;7.010;2023-01-31T13:44:20;101361.50;;;8.48;83.21
3082;BME280;1551;51.046;7.010;2023-01-31T13:47:16;101371.75;;;8.54;83.72
3082;BME280;1551;51.046;7.010;2023-01-31T13:50:28;101381.94;;;8.56;83.54
3082;BME280;1551;51.046;7.010;2023-01-31T13:53:23;101379.34;;;8.48;83.57
3082;BME280;1551;51.046;7.010;2023-01-31T13:56:28;101376.69;;;8.36;84.18
3082;BME280;1551;51.046;7.010;2023-01-31T13:59:27;101378.38;;;8.37;85.41
3082;BME280;1551;51.046;7.010;2023-01-31T14:02:18;101374.97;;;8.35;86.13
3082;BME280;1551;51.046;7.010;2023-01-31T14:11:42;101376.44;;;8.16;88.28
3082;BME280;1551;51.046;7.010;2023-01-31T14:20:26;101375.44;;;8.02;89.63
3082;BME280;1551;51.046;7.010;2023-01-31T14:23:43;101366.91;;;8.02;90.34
3082;BME280;1551;51.046;7.010;2023-01-31T14:29:30;101366.91;;;8.00;91.38
3082;BME280;1551;51.046;7.010;2023-01-31T14:32:44;101367.78;;;7.99;91.60
3082;BME280;1551;51.046;7.010;2023-01-31T14:35:45;101355.03;;;8.01;91.86
3082;BME280;1551;51.046;7.010;2023-01-31T14:42:09;101359.22;;;7.94;92.45
3082;BME280;1551;51.046;7.010;2023-01-31T14:45:21;101361.81;;;8.02;93.07
3082;BME280;1551;51.046;7.010;2023-01-31T14:48:22;101361.94;;;8.12;93.23
3082;BME280;1551;51.046;7.010;2023-01-31T14:51:40;101364.50;;;8.12;92.82
3082;BME280;1551;51.046;7.010;2023-01-31T14:57:42;101358.50;;;8.09;93.25
3082;BME280;1551;51.046;7.010;2023-01-31T15:00:37;101359.31;;;8.05;93.01
3082;BME280;1551;51.046;7.010;2023-01-31T15:03:29;101358.50;;;8.07;93.52
3082;BME280;1551;51.046;7.010;2023-01-31T15:06:28;101366.03;;;7.98;93.29
3082;BME280;1551;51.046;7.010;2023-01-31T15:09:33;101380.41;;;7.92;93.85
3082;BME280;1551;51.046;7.010;2023-01-31T15:15:42;101366.84;;;7.96;94.05
3082;BME280;1551;51.046;7.010;2023-01-31T15:18:35;101362.63;;;7.96;94.17
3082;BME280;1551;51.046;7.010;2023-01-31T15:21:29;101375.38;;;7.96;94.73
3082;BME280;1551;51.046;7.010;2023-01-31T15:24:32;101384.84;;;8.08;94.92
3082;BME280;1551;51.046;7.010;2023-01-31T15:27:29;101396.72;;;8.06;95.10
3082;BME280;1551;51.046;7.010;2023-01-31T15:30:21;101385.72;;;8.08;95.45
3082;BME280;1551;51.046;7.010;2023-01-31T15:33:18;101410.34;;;8.09;95.66
3082;BME280;1551;51.046;7.010;2023-01-31T15:36:18;101395.91;;;8.08;95.69
3082;BME280;1551;51.046;7.010;2023-01-31T15:39:25;101387.25;;;7.94;95.17
3082;BME280;1551;51.046;7.010;2023-01-31T15:42:28;101393.28;;;8.02;95.33
3082;BME280;1551;51.046;7.010;2023-01-31T15:45:26;101400.97;;;8.05;96.25
3082;BME280;1551;51.046;7.010;2023-01-31T15:48:17;101399.28;;;8.06;96.23
3082;BME280;1551;51.046;7.010;2023-01-31T15:51:11;101385.66;;;8.04;95.98
3082;BME280;1551;51.046;7.010;2023-01-31T15:54:04;101400.25;;;8.15;96.73
3082;BME280;1551;51.046;7.010;2023-01-31T15:56:53;101395.09;;;8.14;95.98
3082;BME280;1551;51.046;7.010;2023-01-31T15:59:45;101389.94;;;8.09;95.90
3082;BME280;1551;51.046;7.010;2023-01-31T16:02:35;101400.19;;;8.12;96.01
3082;BME280;1551;51.046;7.010;2023-01-31T16:05:28;101396.78;;;8.10;96.74
3082;BME280;1551;51.046;7.010;2023-01-31T16:08:35;101392.50;;;8.08;96.18
3082;BME280;1551;51.046;7.010;2023-01-31T16:11:26;101404.38;;;8.06;96.62
3082;BME280;1551;51.046;7.010;2023-01-31T16:14:15;101403.59;;;8.13;96.69
3082;BME280;1551;51.046;7.010;2023-01-31T16:17:04;101412.97;;;8.15;96.86
3082;BME280;1551;51.046;7.010;2023-01-31T16:19:54;101416.44;;;8.20;97.09
3082;BME280;1551;51.046;7.010;2023-01-31T16:22:54;101414.66;;;8.15;97.03
3082;BME280;1551;51.046;7.010;2023-01-31T16:25:49;101410.47;;;8.20;97.03
3082;BME280;1551;51.046;7.010;2023-01-31T16:28:43;101419.81;;;8.21;97.04
3082;BME280;1551;51.046;7.010;2023-01-31T16:31:42;101424.09;;;8.22;96.89
3082;BME280;1551;51.046;7.010;2023-01-31T16:34:33;101426.69;;;8.25;97.67
3082;BME280;1551;51.046;7.010;2023-01-31T16:37:35;101435.25;;;8.28;97.14
3082;BME280;1551;51.046;7.010;2023-01-31T16:40:28;101429.28;;;8.28;96.95
3082;BME280;1551;51.046;7.010;2023-01-31T16:43:21;101437.03;;;8.34;97.64
3082;BME280;1551;51.046;7.010;2023-01-31T16:46:19;101439.59;;;8.36;97.23
3082;BME280;1551;51.046;7.010;2023-01-31T16:49:35;101451.56;;;8.44;97.07
3082;BME280;1551;51.046;7.010;2023-01-31T16:52:28;101443.13;;;8.48;96.88
3082;BME280;1551;51.046;7.010;2023-01-31T16:55:20;101443.09;;;8.45;96.26
3082;BME280;1551;51.046;7.010;2023-01-31T16:58:11;101449.88;;;8.45;96.37
3082;BME280;1551;51.046;7.010;2023-01-31T17:01:15;101447.38;;;8.46;97.11